Terminal Aerodrome Forecast
Issued by NWS

Home | Current Version | Previous Version | Text Only | Print | Product List | Glossary On
Versions: 1 2 3 4 5 6 7 8 9 10 11 12 13 14 15 16 17 18
527
FTUS42 KTBW 170546
TAFPIE
TAF
KPIE 170546Z 1706/1806 11007KT P6SM SCT050
     FM170900 12006KT 6SM BR SCT040 BKN300
      TEMPO 1709/1713 BKN040
     FM171400 15008KT P6SM SCT040 BKN300
     FM171900 20007KT P6SM SCT045
     FM172200 26006KT P6SM SCT050
     FM180000 VRB05KT P6SM SCT050=

USA.gov is the U.S. government's official web portal to all federal, state and local government web resources and services.